createdAt,value
2023-01-11T00:00:35.756Z,86.76
2023-01-11T00:01:35.760Z,86.85
2023-01-11T00:02:35.770Z,86.91
2023-01-11T00:03:36.688Z,86.95
2023-01-11T00:04:36.291Z,86.92
2023-01-11T00:05:35.719Z,86.86
2023-01-11T00:06:35.741Z,86.92
2023-01-11T00:07:35.711Z,87.00
2023-01-11T00:08:35.686Z,87.04
2023-01-11T00:09:35.699Z,87.13
2023-01-11T00:10:35.665Z,87.15
2023-01-11T00:11:35.642Z,87.19
2023-01-11T00:12:35.639Z,87.24
2023-01-11T00:13:35.634Z,87.24
2023-01-11T00:14:35.627Z,87.25
2023-01-11T00:15:35.621Z,87.23
2023-01-11T00:16:35.641Z,87.17
2023-01-11T00:17:35.655Z,87.23
2023-01-11T00:18:35.569Z,87.20
2023-01-11T00:19:35.594Z,87.24
2023-01-11T00:20:35.575Z,87.20
2023-01-11T00:21:35.656Z,87.18
2023-01-11T00:22:35.566Z,87.23
2023-01-11T00:23:35.545Z,87.27
2023-01-11T00:24:35.528Z,87.26
2023-01-11T00:25:35.524Z,87.18
2023-01-11T00:26:35.515Z,87.21
2023-01-11T00:27:35.534Z,87.23
2023-01-11T00:28:35.496Z,87.26
2023-01-11T00:29:35.512Z,87.26
2023-01-11T00:30:35.538Z,87.26
2023-01-11T00:31:35.495Z,87.32
2023-01-11T00:32:35.452Z,87.36
2023-01-11T00:33:35.439Z,87.41
2023-01-11T00:34:35.470Z,87.38
2023-01-11T00:35:35.415Z,87.34
2023-01-11T00:36:35.414Z,87.38
2023-01-11T00:37:35.431Z,87.35
2023-01-11T00:38:35.382Z,87.35
2023-01-11T00:39:35.378Z,87.28
2023-01-11T00:40:35.371Z,87.22
2023-01-11T00:41:35.393Z,87.19
2023-01-11T00:42:35.347Z,87.16
2023-01-11T00:43:35.335Z,87.10
2023-01-11T00:44:35.314Z,87.13
2023-01-11T00:45:35.344Z,87.13
2023-01-11T00:46:35.305Z,87.12
2023-01-11T00:47:35.310Z,87.10
2023-01-11T00:48:35.286Z,86.98
2023-01-11T00:49:35.354Z,87.03
2023-01-11T00:50:35.258Z,87.08
2023-01-11T00:51:35.296Z,87.03
2023-01-11T00:52:35.239Z,87.09
2023-01-11T00:53:35.255Z,87.06
2023-01-11T00:54:35.233Z,86.94
2023-01-11T00:55:35.224Z,86.74
2023-01-11T00:56:35.236Z,86.70
2023-01-11T00:57:35.198Z,86.68
2023-01-11T00:58:35.199Z,86.40
2023-01-11T00:59:35.215Z,86.16
2023-01-11T01:00:35.226Z,86.08
2023-01-11T01:01:35.231Z,85.95
2023-01-11T01:02:35.200Z,85.92
2023-01-11T01:03:35.201Z,85.87
2023-01-11T01:04:35.140Z,85.74
2023-01-11T01:05:35.151Z,85.51
2023-01-11T01:06:35.190Z,85.44
2023-01-11T01:07:35.137Z,85.43
2023-01-11T01:08:35.099Z,85.38
2023-01-11T01:09:35.089Z,85.07
2023-01-11T01:10:35.129Z,84.90
2023-01-11T01:11:35.075Z,84.64
2023-01-11T01:12:35.048Z,84.32
2023-01-11T01:13:35.127Z,84.00
2023-01-11T01:14:35.036Z,83.45
2023-01-11T01:15:35.196Z,83.18
2023-01-11T01:16:35.014Z,83.23
2023-01-11T01:17:35.034Z,83.20
2023-01-11T01:18:34.989Z,83.10
2023-01-11T01:19:35.037Z,82.77
2023-01-11T01:20:34.992Z,82.70
2023-01-11T01:21:35.087Z,82.65
2023-01-11T01:22:34.955Z,82.53
2023-01-11T01:23:34.943Z,82.39
2023-01-11T01:24:34.985Z,82.30
2023-01-11T01:25:35.081Z,82.07
2023-01-11T01:26:34.916Z,81.83
2023-01-11T01:27:34.916Z,81.65
2023-01-11T01:28:34.897Z,81.45
2023-01-11T01:29:34.875Z,81.46
2023-01-11T01:30:34.888Z,81.59
2023-01-11T01:31:34.898Z,81.92
2023-01-11T01:32:34.851Z,81.77
2023-01-11T01:33:34.879Z,81.63
2023-01-11T01:34:34.848Z,81.65
2023-01-11T01:35:35.021Z,81.61
2023-01-11T01:36:34.835Z,81.66
2023-01-11T01:37:34.907Z,81.69
2023-01-11T01:38:34.921Z,81.69
2023-01-11T01:39:34.808Z,81.68
2023-01-11T01:40:34.815Z,81.69
2023-01-11T01:41:34.805Z,81.99
2023-01-11T01:42:34.797Z,82.03
2023-01-11T01:43:34.801Z,82.17
2023-01-11T01:44:34.774Z,82.42
2023-01-11T01:45:34.754Z,82.35
2023-01-11T01:46:34.816Z,82.40
2023-01-11T01:47:34.744Z,82.46
2023-01-11T01:48:34.737Z,82.42
2023-01-11T01:49:34.711Z,82.37
2023-01-11T01:50:34.710Z,82.50
2023-01-11T01:51:34.696Z,82.65
2023-01-11T01:52:34.732Z,82.66
2023-01-11T01:53:34.670Z,82.65
2023-01-11T01:54:34.690Z,82.63
2023-01-11T01:55:34.681Z,82.83
2023-01-11T01:56:34.671Z,82.78
2023-01-11T01:57:34.645Z,82.82
2023-01-11T01:58:34.628Z,82.79
2023-01-11T01:59:34.614Z,82.79
2023-01-11T02:02:03.513Z,82.34
2023-01-11T02:03:04.404Z,82.40
2023-01-11T02:04:04.188Z,82.36
2023-01-11T02:05:04.170Z,82.29
2023-01-11T02:06:04.166Z,82.26
2023-01-11T02:07:04.168Z,82.21
2023-01-11T02:08:04.123Z,82.23
2023-01-11T02:09:04.193Z,82.24
2023-01-11T02:10:04.136Z,82.34
2023-01-11T02:11:04.097Z,82.33
2023-01-11T02:12:04.104Z,82.36
2023-01-11T02:13:04.127Z,82.29
2023-01-11T02:14:04.078Z,82.20
2023-01-11T02:15:04.084Z,82.08
2023-01-11T02:16:04.139Z,82.05
2023-01-11T02:17:04.037Z,81.99
2023-01-11T02:18:04.044Z,81.85
2023-01-11T02:19:04.081Z,81.53
2023-01-11T02:20:04.006Z,81.17
2023-01-11T02:21:04.025Z,81.16
2023-01-11T02:22:03.985Z,80.90
2023-01-11T02:23:04.017Z,81.00
2023-01-11T02:24:03.991Z,80.94
2023-01-11T02:25:03.979Z,81.15
2023-01-11T02:26:03.964Z,80.76
2023-01-11T02:27:03.970Z,81.02
2023-01-11T02:28:03.947Z,80.99
2023-01-11T02:29:03.918Z,81.29
2023-01-11T02:30:04.041Z,81.19
2023-01-11T02:31:03.946Z,81.17
2023-01-11T02:32:03.904Z,81.10
2023-01-11T02:33:03.910Z,80.85
2023-01-11T02:34:03.959Z,80.78
2023-01-11T02:35:03.869Z,80.87
2023-01-11T02:36:03.851Z,80.90
2023-01-11T02:37:03.877Z,81.07
2023-01-11T02:38:03.833Z,81.18
2023-01-11T02:39:03.842Z,81.09
2023-01-11T02:40:03.869Z,80.85
2023-01-11T02:41:03.788Z,80.89
2023-01-11T02:42:03.799Z,81.02
2023-01-11T02:43:03.807Z,81.25
2023-01-11T02:44:03.822Z,81.37
2023-01-11T02:45:03.786Z,81.38
2023-01-11T02:46:03.773Z,81.52
2023-01-11T02:47:03.770Z,81.63
2023-01-11T02:48:03.773Z,81.52
2023-01-11T02:49:03.717Z,81.43
2023-01-11T02:50:03.714Z,81.60
2023-01-11T02:51:03.725Z,81.66
2023-01-11T02:52:03.726Z,81.80
2023-01-11T02:53:03.676Z,81.69
2023-01-11T02:54:03.690Z,81.58
2023-01-11T02:55:03.701Z,81.60
2023-01-11T02:56:03.682Z,81.58
2023-01-11T02:57:03.647Z,81.32
2023-01-11T02:58:03.672Z,81.27
2023-01-11T02:59:03.636Z,81.32
2023-01-11T03:00:03.625Z,81.34
2023-01-11T03:01:03.631Z,81.32
2023-01-11T03:02:03.695Z,81.10
2023-01-11T03:03:03.640Z,81.14
2023-01-11T03:04:03.606Z,80.92
2023-01-11T03:05:03.589Z,80.77
2023-01-11T03:06:03.578Z,80.76
2023-01-11T03:07:03.573Z,80.78
2023-01-11T03:08:03.537Z,80.97
2023-01-11T03:09:03.566Z,81.17
2023-01-11T03:10:03.519Z,81.15
2023-01-11T03:11:03.503Z,81.15
2023-01-11T03:12:03.498Z,81.24
2023-01-11T03:13:03.485Z,81.29
2023-01-11T03:14:03.493Z,81.30
2023-01-11T03:15:03.502Z,81.46
2023-01-11T03:16:03.573Z,81.46
2023-01-11T03:17:03.458Z,81.43
2023-01-11T03:18:03.435Z,81.37
2023-01-11T03:19:03.450Z,81.25
2023-01-11T03:20:03.440Z,81.32
2023-01-11T03:21:03.406Z,81.30
2023-01-11T03:22:03.410Z,81.32
2023-01-11T03:23:03.431Z,81.41
2023-01-11T03:24:03.371Z,81.59
2023-01-11T03:25:03.388Z,81.70
2023-01-11T03:26:03.422Z,81.78
2023-01-11T03:27:03.350Z,81.74
2023-01-11T03:28:03.344Z,81.75
2023-01-11T03:29:03.329Z,81.50
2023-01-11T03:30:03.392Z,81.53
2023-01-11T03:31:03.354Z,81.46
2023-01-11T03:32:03.307Z,81.36
2023-01-11T03:33:03.283Z,81.15
2023-01-11T03:34:03.291Z,81.01
2023-01-11T03:35:03.303Z,81.02
2023-01-11T03:36:03.257Z,80.98
2023-01-11T03:37:03.275Z,80.99
2023-01-11T03:38:03.355Z,81.02
2023-01-11T03:39:03.285Z,81.00
2023-01-11T03:40:03.224Z,80.93
2023-01-11T03:41:03.217Z,80.85
2023-01-11T03:42:03.228Z,80.86
2023-01-11T03:43:03.183Z,80.66
2023-01-11T03:44:03.190Z,80.40
2023-01-11T03:45:03.191Z,80.45
2023-01-11T03:46:03.185Z,80.62
2023-01-11T03:47:03.221Z,80.70
2023-01-11T03:48:03.146Z,80.69
2023-01-11T03:49:03.132Z,80.24
2023-01-11T03:50:03.135Z,79.97
2023-01-11T03:51:03.139Z,79.86
2023-01-11T03:52:03.109Z,79.74
2023-01-11T03:53:03.132Z,79.63
2023-01-11T03:54:03.084Z,79.76
2023-01-11T03:55:03.076Z,80.04
2023-01-11T03:56:03.101Z,80.10
2023-01-11T03:57:03.056Z,80.13
2023-01-11T03:58:03.099Z,80.14
2023-01-11T03:59:03.039Z,80.08
2023-01-11T04:00:03.016Z,79.89
2023-01-11T04:01:03.061Z,79.84
2023-01-11T04:02:03.036Z,79.93
2023-01-11T04:03:03.020Z,79.88
2023-01-11T04:04:03.005Z,79.98
2023-01-11T04:05:03.004Z,80.11
2023-01-11T04:06:03.025Z,80.02
2023-01-11T04:07:02.962Z,80.07
2023-01-11T04:08:02.951Z,80.12
2023-01-11T04:09:02.977Z,80.10
2023-01-11T04:10:02.935Z,80.14
2023-01-11T04:11:02.927Z,80.24
2023-01-11T04:12:02.920Z,80.34
2023-01-11T04:13:02.914Z,80.51
2023-01-11T04:14:02.945Z,80.66
2023-01-11T04:15:02.920Z,80.76
2023-01-11T04:16:02.981Z,80.86
2023-01-11T04:17:02.881Z,80.96
2023-01-11T04:18:02.852Z,81.03
2023-01-11T04:19:02.888Z,81.13
2023-01-11T04:20:02.879Z,81.09
2023-01-11T04:21:02.879Z,81.00
2023-01-11T04:22:02.887Z,80.90
2023-01-11T04:23:02.869Z,80.87
2023-01-11T04:24:02.849Z,80.77
2023-01-11T04:25:02.830Z,80.80
2023-01-11T04:26:02.874Z,80.73
2023-01-11T04:27:02.753Z,80.58
2023-01-11T04:28:02.764Z,80.42
2023-01-11T04:29:02.731Z,80.51
2023-01-11T04:30:02.758Z,80.58
2023-01-11T04:31:02.780Z,80.54
2023-01-11T04:32:02.703Z,80.62
2023-01-11T04:33:02.692Z,80.72
2023-01-11T04:34:02.692Z,80.69
2023-01-11T04:35:02.667Z,80.59
2023-01-11T04:36:02.673Z,80.64
2023-01-11T04:37:02.685Z,80.74
2023-01-11T04:38:02.670Z,80.79
2023-01-11T04:39:02.634Z,80.82
2023-01-11T04:40:02.638Z,80.84
2023-01-11T04:41:02.651Z,80.84
2023-01-11T04:42:02.601Z,80.84
2023-01-11T04:43:02.624Z,80.77
2023-01-11T04:44:02.603Z,80.65
2023-01-11T04:45:02.647Z,80.72
2023-01-11T04:46:02.638Z,80.78
2023-01-11T04:47:02.578Z,80.90
2023-01-11T04:48:02.557Z,80.87
2023-01-11T04:49:02.565Z,80.85
2023-01-11T04:50:02.573Z,80.72
2023-01-11T04:51:02.535Z,80.74
2023-01-11T04:52:02.519Z,80.67
2023-01-11T04:53:02.542Z,80.61
2023-01-11T04:54:02.532Z,80.72
2023-01-11T04:55:02.493Z,80.62
2023-01-11T04:56:02.513Z,80.41
2023-01-11T04:57:02.467Z,80.07
2023-01-11T04:58:02.453Z,80.22
2023-01-11T04:59:02.444Z,80.01
2023-01-11T05:00:02.438Z,80.12
2023-01-11T05:01:02.543Z,80.14
2023-01-11T05:02:02.483Z,79.86
2023-01-11T05:03:02.444Z,79.66
2023-01-11T05:04:02.428Z,79.55
2023-01-11T05:05:02.431Z,79.45
2023-01-11T05:06:02.381Z,79.56
2023-01-11T05:07:02.462Z,79.50
2023-01-11T05:08:02.390Z,79.39
2023-01-11T05:09:02.350Z,79.36
2023-01-11T05:10:02.458Z,79.31
2023-01-11T05:11:02.304Z,79.18
2023-01-11T05:12:02.312Z,79.09
2023-01-11T05:13:02.274Z,78.87
2023-01-11T05:14:02.275Z,78.87
2023-01-11T05:15:02.346Z,78.95
2023-01-11T05:16:02.256Z,78.78
2023-01-11T05:17:02.265Z,78.76
2023-01-11T05:18:02.254Z,78.78
2023-01-11T05:19:02.230Z,78.74
2023-01-11T05:20:02.219Z,78.68
2023-01-11T05:21:02.192Z,78.69
2023-01-11T05:22:02.190Z,78.73
2023-01-11T05:23:02.188Z,78.75
2023-01-11T05:24:02.171Z,78.78
2023-01-11T05:25:02.207Z,78.79
2023-01-11T05:26:02.143Z,78.75
2023-01-11T05:27:02.139Z,78.72
2023-01-11T05:28:02.144Z,78.86
2023-01-11T05:29:02.120Z,79.00
2023-01-11T05:30:02.109Z,79.00
2023-01-11T05:31:02.096Z,78.57
2023-01-11T05:32:02.166Z,78.60
2023-01-11T05:33:02.072Z,78.65
2023-01-11T05:34:02.092Z,78.71
2023-01-11T05:35:02.071Z,78.77
2023-01-11T05:36:02.056Z,78.79
2023-01-11T05:37:02.041Z,78.63
2023-01-11T05:38:02.050Z,78.58
2023-01-11T05:39:02.016Z,78.53
2023-01-11T05:40:02.035Z,78.53
2023-01-11T05:41:02.013Z,78.45
2023-01-11T05:42:01.992Z,78.34
2023-01-11T05:43:01.979Z,78.28
2023-01-11T05:44:02.000Z,78.30
2023-01-11T05:45:01.988Z,78.05
2023-01-11T05:46:02.004Z,78.04
2023-01-11T05:47:01.955Z,77.99
2023-01-11T05:48:01.930Z,77.74
2023-01-11T05:49:01.951Z,77.90
2023-01-11T05:50:01.939Z,77.98
2023-01-11T05:51:01.924Z,78.03
2023-01-11T05:52:01.933Z,78.10
2023-01-11T05:53:01.895Z,78.01
2023-01-11T05:54:01.870Z,78.13
2023-01-11T05:55:01.885Z,78.03
2023-01-11T05:56:01.859Z,78.13
2023-01-11T05:57:01.889Z,78.13
2023-01-11T05:58:01.898Z,78.01
2023-01-11T05:59:01.821Z,77.96
2023-01-11T06:00:01.826Z,78.01
2023-01-11T06:01:01.803Z,77.97
2023-01-11T06:02:01.843Z,77.99
2023-01-11T06:03:01.849Z,77.82
2023-01-11T06:04:01.775Z,77.94
2023-01-11T06:05:01.769Z,78.01
2023-01-11T06:06:01.775Z,77.95
2023-01-11T06:07:01.765Z,78.09
2023-01-11T06:08:01.755Z,77.99
2023-01-11T06:09:01.737Z,78.01
2023-01-11T06:10:01.781Z,78.03
2023-01-11T06:11:01.725Z,78.14
2023-01-11T06:12:01.709Z,78.15
2023-01-11T06:13:01.739Z,78.25
2023-01-11T06:14:01.672Z,78.45
2023-01-11T06:15:01.695Z,78.61
2023-01-11T06:16:01.682Z,78.65
2023-01-11T06:17:01.664Z,78.42
2023-01-11T06:18:01.652Z,78.41
2023-01-11T06:19:01.632Z,78.62
2023-01-11T06:20:01.679Z,78.64
2023-01-11T06:21:01.609Z,78.58
2023-01-11T06:22:01.614Z,78.44
2023-01-11T06:23:01.628Z,78.46
2023-01-11T06:24:01.620Z,78.45
2023-01-11T06:25:01.559Z,78.53
2023-01-11T06:26:01.561Z,78.26
2023-01-11T06:27:01.623Z,77.99
2023-01-11T06:28:01.639Z,77.97
2023-01-11T06:29:01.471Z,77.98
2023-01-11T06:30:01.531Z,78.01
2023-01-11T06:31:01.578Z,78.24
2023-01-11T06:32:01.494Z,78.40
2023-01-11T06:33:01.458Z,78.48
2023-01-11T06:34:01.421Z,78.55
2023-01-11T06:35:01.437Z,78.63
2023-01-11T06:36:01.485Z,78.54
2023-01-11T06:37:01.463Z,78.60
2023-01-11T06:38:01.413Z,78.68
2023-01-11T06:39:01.407Z,78.81
2023-01-11T06:40:01.365Z,78.88
2023-01-11T06:41:01.388Z,78.99
2023-01-11T06:42:01.374Z,78.91
2023-01-11T06:43:01.323Z,78.75
2023-01-11T06:44:01.327Z,78.62
2023-01-11T06:45:02.223Z,78.54
2023-01-11T06:46:01.334Z,78.60
2023-01-11T06:47:01.292Z,78.56
2023-01-11T06:48:01.314Z,78.49
2023-01-11T06:49:01.369Z,78.45
2023-01-11T06:50:01.266Z,78.46
2023-01-11T06:51:01.261Z,78.47
2023-01-11T06:52:01.254Z,78.53
2023-01-11T06:53:01.237Z,78.53
2023-01-11T06:54:01.285Z,78.61
2023-01-11T06:55:01.253Z,78.77
2023-01-11T06:56:01.230Z,78.75
2023-01-11T06:57:01.209Z,78.78
2023-01-11T06:58:01.226Z,78.65
2023-01-11T06:59:01.274Z,78.57
2023-01-11T07:00:01.165Z,78.53
2023-01-11T07:01:01.238Z,78.66
2023-01-11T07:02:01.164Z,78.78
2023-01-11T07:03:01.153Z,78.86
2023-01-11T07:04:01.136Z,78.97
2023-01-11T07:05:01.234Z,79.05
2023-01-11T07:06:01.108Z,79.03
2023-01-11T07:07:01.113Z,78.91
2023-01-11T07:08:01.102Z,78.94
2023-01-11T07:09:01.092Z,79.01
2023-01-11T07:10:01.106Z,78.95
2023-01-11T07:11:01.095Z,78.98
2023-01-11T07:12:01.050Z,78.91
2023-01-11T07:13:01.065Z,78.88
2023-01-11T07:14:01.032Z,78.96
2023-01-11T07:15:01.018Z,78.93
2023-01-11T07:16:01.101Z,78.60
2023-01-11T07:17:00.997Z,78.58
2023-01-11T07:18:00.998Z,78.72
2023-01-11T07:19:00.974Z,78.82
2023-01-11T07:20:01.001Z,78.75
2023-01-11T07:21:00.960Z,78.67
2023-01-11T07:22:00.965Z,78.62
2023-01-11T07:23:01.014Z,78.52
2023-01-11T07:24:00.924Z,78.57
2023-01-11T07:25:00.923Z,78.32
2023-01-11T07:26:01.211Z,78.41
2023-01-11T07:27:00.895Z,78.28
2023-01-11T07:28:00.882Z,77.95
2023-01-11T07:29:00.924Z,77.86
2023-01-11T07:30:00.912Z,77.94
2023-01-11T07:31:00.988Z,77.79
2023-01-11T07:32:00.857Z,77.83
2023-01-11T07:33:00.860Z,77.85
2023-01-11T07:34:00.825Z,77.74
2023-01-11T07:35:00.855Z,77.67
2023-01-11T07:36:00.866Z,77.77
2023-01-11T07:37:00.836Z,77.76
2023-01-11T07:38:00.796Z,77.96
2023-01-11T07:39:00.806Z,77.91
2023-01-11T07:40:00.781Z,78.08
2023-01-11T07:41:00.784Z,78.17
2023-01-11T07:42:00.741Z,78.21
2023-01-11T07:43:00.755Z,78.26
2023-01-11T07:44:00.812Z,78.32
2023-01-11T07:45:00.770Z,78.48
2023-01-11T07:46:00.805Z,78.53
2023-01-11T07:47:00.799Z,78.54
2023-01-11T07:48:00.733Z,78.59
2023-01-11T07:49:00.689Z,78.63
2023-01-11T07:50:00.680Z,78.59
2023-01-11T07:51:00.741Z,78.62
2023-01-11T07:52:00.685Z,78.55
2023-01-11T07:53:00.687Z,78.58
2023-01-11T07:54:00.681Z,78.51
2023-01-11T07:55:00.629Z,78.58
2023-01-11T07:56:00.617Z,78.62
2023-01-11T07:57:00.631Z,78.67
2023-01-11T07:58:00.595Z,78.78
2023-01-11T07:59:00.598Z,78.75
2023-01-11T08:00:00.586Z,78.84
2023-01-11T08:01:00.567Z,78.99
2023-01-11T08:02:00.554Z,79.05
2023-01-11T08:03:00.767Z,79.19
2023-01-11T08:04:00.534Z,79.15
2023-01-11T08:05:02.989Z,79.21
2023-01-11T08:06:00.551Z,79.28
2023-01-11T08:07:00.548Z,79.30
2023-01-11T08:08:00.492Z,79.39
2023-01-11T08:09:00.547Z,79.43
2023-01-11T08:10:00.473Z,79.44
2023-01-11T08:11:00.535Z,79.53
2023-01-11T08:12:00.498Z,79.62
2023-01-11T08:13:00.441Z,79.73
2023-01-11T08:14:00.490Z,79.84
2023-01-11T08:15:00.486Z,79.86
2023-01-11T08:16:00.545Z,79.83
2023-01-11T08:17:00.417Z,79.87
2023-01-11T08:18:00.404Z,79.91
2023-01-11T08:19:00.438Z,79.91
2023-01-11T08:20:00.371Z,79.93
2023-01-11T08:21:00.379Z,79.99
2023-01-11T08:22:00.367Z,80.09
2023-01-11T08:23:00.402Z,80.03
2023-01-11T08:24:00.365Z,80.01
2023-01-11T08:25:00.347Z,79.99
2023-01-11T08:26:00.310Z,79.99
2023-01-11T08:27:00.335Z,79.91
2023-01-11T08:28:00.301Z,79.86
2023-01-11T08:29:00.295Z,79.82
2023-01-11T08:30:00.293Z,79.76
2023-01-11T08:31:00.304Z,79.73
2023-01-11T08:32:00.268Z,79.67
2023-01-11T08:33:00.257Z,79.63
2023-01-11T08:34:00.265Z,79.62
2023-01-11T08:35:00.224Z,79.68
2023-01-11T08:36:00.211Z,79.66
2023-01-11T08:37:00.247Z,79.73
2023-01-11T08:38:00.234Z,79.54
2023-01-11T08:39:00.213Z,79.42
2023-01-11T08:40:00.265Z,79.50
2023-01-11T08:41:00.161Z,79.49
2023-01-11T08:42:00.166Z,79.53
2023-01-11T08:43:00.231Z,79.55
2023-01-11T08:44:00.160Z,79.61
2023-01-11T08:45:00.168Z,79.54
2023-01-11T08:46:00.281Z,79.44
2023-01-11T08:47:00.150Z,79.46
2023-01-11T08:48:00.092Z,79.36
2023-01-11T08:49:00.125Z,79.36
2023-01-11T08:50:00.108Z,79.21
2023-01-11T08:51:00.074Z,79.15
2023-01-11T08:52:00.087Z,79.07
2023-01-11T08:53:00.065Z,78.94
2023-01-11T08:54:00.039Z,78.93
2023-01-11T08:55:00.041Z,78.66
2023-01-11T08:56:00.013Z,78.64
2023-01-11T08:57:00.009Z,78.69
2023-01-11T08:58:00.071Z,78.63
2023-01-11T08:59:00.049Z,78.62
2023-01-11T09:00:00.141Z,78.65
2023-01-11T09:00:59.987Z,78.74
2023-01-11T09:02:00.015Z,78.71
2023-01-11T09:03:00.109Z,78.68
2023-01-11T09:04:00.051Z,78.68
2023-01-11T09:04:59.940Z,78.64
2023-01-11T09:05:59.918Z,78.61
2023-01-11T09:06:59.931Z,78.36
2023-01-11T09:07:59.913Z,78.51
2023-01-11T09:08:59.949Z,78.46
2023-01-11T09:09:59.901Z,78.39
2023-01-11T09:10:59.945Z,78.39
2023-01-11T09:11:59.859Z,78.27
2023-01-11T09:12:59.962Z,78.18
2023-01-11T09:13:59.849Z,77.94
2023-01-11T09:14:59.859Z,78.05
2023-01-11T09:15:59.869Z,78.02
2023-01-11T09:16:59.838Z,78.07
2023-01-11T09:17:59.794Z,78.34
2023-01-11T09:18:59.852Z,78.34
2023-01-11T09:19:59.833Z,78.20
2023-01-11T09:20:59.775Z,78.35
2023-01-11T09:21:59.804Z,78.15
2023-01-11T09:22:59.880Z,78.14
2023-01-11T09:23:59.754Z,78.20
2023-01-11T09:24:59.727Z,78.30
2023-01-11T09:25:59.746Z,78.46
2023-01-11T09:26:59.863Z,78.39
2023-01-11T09:27:59.714Z,78.37
2023-01-11T09:28:59.755Z,78.45
2023-01-11T09:29:59.703Z,78.36
2023-01-11T09:30:59.689Z,78.41
2023-01-11T09:31:59.688Z,78.40
2023-01-11T09:32:59.648Z,78.44
2023-01-11T09:33:59.661Z,78.43
2023-01-11T09:34:59.662Z,78.34
2023-01-11T09:35:59.641Z,78.48
2023-01-11T09:36:59.645Z,78.42
2023-01-11T09:37:59.606Z,78.48
2023-01-11T09:38:59.593Z,78.48
2023-01-11T09:39:59.594Z,78.34
2023-01-11T09:40:59.606Z,78.31
2023-01-11T09:41:59.591Z,78.38
2023-01-11T09:42:59.566Z,78.57
2023-01-11T09:43:59.574Z,78.29
2023-01-11T09:44:59.571Z,78.36
2023-01-11T09:45:59.571Z,78.07
2023-01-11T09:46:59.582Z,77.91
2023-01-11T09:47:59.574Z,77.75
2023-01-11T09:48:59.555Z,77.44
2023-01-11T09:49:59.539Z,77.52
2023-01-11T09:50:59.566Z,77.69
2023-01-11T09:51:59.893Z,77.75
2023-01-11T09:52:59.525Z,77.67
2023-01-11T09:53:59.537Z,77.73
2023-01-11T09:54:59.559Z,77.82
2023-01-11T09:55:59.548Z,77.63
2023-01-11T09:56:59.424Z,77.79
2023-01-11T09:57:59.555Z,77.65
2023-01-11T09:58:59.585Z,77.70
2023-01-11T09:59:59.375Z,77.73
2023-01-11T10:01:01.217Z,77.64
2023-01-11T10:01:59.364Z,77.73
2023-01-11T10:02:59.373Z,77.85
2023-01-11T10:03:59.343Z,78.10
2023-01-11T10:04:59.411Z,78.20
2023-01-11T10:05:59.317Z,78.09
2023-01-11T10:06:59.305Z,78.12
2023-01-11T10:18:23.052Z,78.08
2023-01-11T10:18:58.299Z,77.30
2023-01-11T10:19:37.383Z,77.42
2023-01-11T10:19:49.525Z,77.38
2023-01-11T10:20:49.505Z,77.33
2023-01-11T10:21:49.502Z,77.43
2023-01-11T10:22:49.450Z,77.49
2023-01-11T10:23:49.419Z,77.47
2023-01-11T10:24:49.463Z,77.65
2023-01-11T10:25:49.417Z,77.43
2023-01-11T10:26:49.457Z,77.36
2023-01-11T10:27:49.408Z,77.35
2023-01-11T10:28:49.383Z,77.26
2023-01-11T10:29:49.350Z,77.12
2023-01-11T10:30:49.379Z,76.96
2023-01-11T10:31:49.517Z,76.71
2023-01-11T10:32:49.331Z,76.72
2023-01-11T10:33:49.383Z,76.58
2023-01-11T10:34:49.304Z,76.31
2023-01-11T10:35:49.303Z,76.20
2023-01-11T10:36:49.289Z,76.18
2023-01-11T10:37:49.290Z,75.85
2023-01-11T10:38:49.274Z,75.71
2023-01-11T10:39:49.271Z,75.55
2023-01-11T10:40:49.286Z,75.18
2023-01-11T10:41:49.224Z,75.10
2023-01-11T10:42:49.232Z,75.12
2023-01-11T10:43:49.206Z,75.20
2023-01-11T10:44:49.291Z,75.03
2023-01-11T10:45:49.270Z,75.10
2023-01-11T10:46:49.261Z,75.19
2023-01-11T10:47:49.316Z,75.16
2023-01-11T10:48:49.153Z,75.12
2023-01-11T10:49:49.166Z,75.16
2023-01-11T10:50:49.139Z,75.26
2023-01-11T10:51:49.143Z,74.91
2023-01-11T10:52:49.121Z,74.83
2023-01-11T10:53:49.260Z,74.83
2023-01-11T10:54:50.259Z,75.06
2023-01-11T10:55:49.098Z,75.17
2023-01-11T10:57:01.806Z,75.32
2023-01-11T10:57:59.383Z,75.30
2023-01-11T10:58:49.060Z,75.61
2023-01-11T10:59:49.077Z,75.79
2023-01-11T11:00:49.138Z,75.72
2023-01-11T11:01:49.070Z,76.13
2023-01-11T11:02:49.037Z,76.17
2023-01-11T11:03:49.146Z,76.38
2023-01-11T11:04:49.035Z,76.42
2023-01-11T11:05:48.978Z,76.43
2023-01-11T11:06:48.991Z,76.89
2023-01-11T11:07:48.990Z,77.34
2023-01-11T11:08:48.954Z,77.77
2023-01-11T11:09:48.956Z,78.31
2023-01-11T11:10:49.026Z,78.47
2023-01-11T11:11:48.938Z,78.71
2023-01-11T11:12:48.944Z,79.29
2023-01-11T11:13:49.099Z,79.64
2023-01-11T11:14:48.958Z,80.03
2023-01-11T11:15:48.946Z,80.61
2023-01-11T11:16:48.959Z,80.53
2023-01-11T11:17:48.903Z,80.49
2023-01-11T11:18:48.986Z,81.01
2023-01-11T11:19:48.891Z,80.99
2023-01-11T11:20:48.890Z,80.80
2023-01-11T11:21:48.884Z,80.84
2023-01-11T11:22:48.959Z,81.18
2023-01-11T11:23:48.837Z,81.43
2023-01-11T11:24:48.837Z,81.41
2023-01-11T11:25:48.837Z,81.82
2023-01-11T11:26:48.865Z,81.83
2023-01-11T11:27:48.814Z,81.62
2023-01-11T11:28:48.887Z,81.71
2023-01-11T11:29:48.887Z,81.66
2023-01-11T11:30:48.933Z,81.50
2023-01-11T11:31:48.926Z,81.53
2023-01-11T11:32:48.745Z,81.61
2023-01-11T11:33:48.758Z,81.31
2023-01-11T11:34:48.723Z,81.19
2023-01-11T11:35:48.768Z,81.41
2023-01-11T11:36:48.798Z,81.13
2023-01-11T11:37:48.690Z,81.18
2023-01-11T11:38:48.674Z,81.43
2023-01-11T11:39:48.679Z,81.26
2023-01-11T11:40:48.681Z,80.95
2023-01-11T11:41:48.798Z,80.90
2023-01-11T11:42:48.674Z,80.90
2023-01-11T11:43:48.634Z,80.88
2023-01-11T11:44:48.642Z,81.15
2023-01-11T11:45:48.710Z,81.05
2023-01-11T11:46:48.639Z,81.19
2023-01-11T11:47:48.614Z,81.01
2023-01-11T11:48:48.649Z,81.05
2023-01-11T11:49:48.582Z,80.90
2023-01-11T11:51:43.611Z,80.56
2023-01-11T11:52:44.233Z,80.77
2023-01-11T11:53:44.189Z,80.20
2023-01-11T11:54:44.136Z,79.75
2023-01-11T11:55:44.128Z,79.69
2023-01-11T11:56:44.135Z,79.65
2023-01-11T11:57:44.123Z,79.46
2023-01-11T11:58:44.093Z,79.45
2023-01-11T11:59:44.067Z,79.32
2023-01-11T12:00:44.134Z,79.18
2023-01-11T12:01:44.076Z,78.98
2023-01-11T12:02:44.063Z,79.20
2023-01-11T12:03:44.108Z,79.11
2023-01-11T12:04:44.061Z,78.95
2023-01-11T12:05:44.054Z,79.25
2023-01-11T12:06:44.022Z,79.55
2023-01-11T12:07:54.168Z,79.43
2023-01-11T12:08:44.000Z,79.75
2023-01-11T12:09:43.987Z,79.69
2023-01-11T12:10:43.983Z,79.82
2023-01-11T12:11:43.951Z,80.03
2023-01-11T12:12:43.960Z,80.11
2023-01-11T12:13:43.971Z,80.08
2023-01-11T12:14:43.937Z,80.35
2023-01-11T12:15:43.955Z,80.37
2023-01-11T12:16:43.978Z,80.50
2023-01-11T12:17:43.911Z,80.81
2023-01-11T12:18:43.915Z,81.04
2023-01-11T12:19:43.898Z,80.97
2023-01-11T12:20:43.877Z,80.97
2023-01-11T12:21:43.861Z,81.11
2023-01-11T12:22:43.844Z,81.28
2023-01-11T12:23:50.704Z,81.37
2023-01-11T12:24:43.829Z,81.41
2023-01-11T12:25:43.939Z,81.43
2023-01-11T12:26:43.931Z,81.40
2023-01-11T12:27:43.796Z,81.63
2023-01-11T12:28:43.820Z,81.76
2023-01-11T12:29:43.792Z,81.62
2023-01-11T12:30:43.780Z,81.81
2023-01-11T12:31:43.752Z,81.85
2023-01-11T12:32:43.755Z,81.73
2023-01-11T12:33:43.738Z,81.92
2023-01-11T12:34:43.750Z,82.29
2023-01-11T12:35:43.754Z,82.29
2023-01-11T12:36:43.752Z,82.61
2023-01-11T12:37:43.695Z,82.34
2023-01-11T12:38:43.721Z,82.27
2023-01-11T12:39:43.700Z,82.64
2023-01-11T12:40:43.668Z,82.87
2023-01-11T12:41:43.734Z,82.93
2023-01-11T12:42:43.757Z,83.05
2023-01-11T12:43:43.683Z,83.13
2023-01-11T12:44:43.640Z,83.34
2023-01-11T12:45:43.700Z,83.63
2023-01-11T12:46:43.631Z,83.55
2023-01-11T12:47:50.141Z,83.47
2023-01-11T12:48:43.592Z,83.57
2023-01-11T12:49:43.595Z,83.22
2023-01-11T12:50:43.598Z,83.15
2023-01-11T12:51:43.590Z,83.37
2023-01-11T12:52:43.552Z,83.49
2023-01-11T12:53:43.581Z,83.61
2023-01-11T12:54:43.539Z,83.41
2023-01-11T12:55:43.543Z,83.36
2023-01-11T12:56:43.511Z,83.58
2023-01-11T12:57:43.511Z,83.52
2023-01-11T12:58:43.501Z,83.58
2023-01-11T12:59:43.484Z,83.38
2023-01-11T13:00:43.501Z,83.54
2023-01-11T13:01:43.571Z,83.58
2023-01-11T13:02:43.493Z,83.28
2023-01-11T13:03:43.443Z,83.50